createdAt,value
2023-04-22T00:02:37.357Z,10.14
2023-04-22T00:06:39.507Z,10.18
2023-04-22T00:10:41.518Z,10.19
2023-04-22T00:14:43.597Z,10.23
2023-04-22T00:18:45.683Z,10.21
2023-04-22T00:22:48.233Z,10.19
2023-04-22T00:26:50.444Z,10.23
2023-04-22T00:30:52.494Z,10.34
2023-04-22T00:34:54.596Z,10.44
2023-04-22T00:38:57.021Z,10.54
2023-04-22T00:43:00.165Z,10.64
2023-04-22T00:47:02.349Z,10.72
2023-04-22T00:51:05.601Z,10.79
2023-04-22T00:55:08.477Z,10.83
2023-04-22T00:59:10.889Z,10.87
2023-04-22T01:03:13.113Z,10.92
2023-04-22T01:07:15.490Z,10.98
2023-04-22T01:11:17.672Z,11.00
2023-04-22T01:15:20.217Z,11.05
2023-04-22T01:19:23.708Z,11.09
2023-04-22T01:23:25.805Z,11.12
2023-04-22T01:27:28.080Z,11.13
2023-04-22T01:31:30.512Z,11.16
2023-04-22T01:35:37.003Z,11.19
2023-04-22T01:39:39.747Z,11.19
2023-04-22T01:43:42.920Z,11.21
2023-04-22T01:47:45.008Z,11.22
2023-04-22T01:51:47.127Z,11.22
2023-04-22T01:55:49.220Z,11.23
2023-04-22T01:59:51.282Z,11.25
2023-04-22T02:03:53.467Z,11.25
2023-04-22T02:07:55.626Z,11.23
2023-04-22T02:11:57.649Z,11.19
2023-04-22T02:15:59.771Z,11.18
2023-04-22T02:20:02.972Z,11.12
2023-04-22T02:24:05.804Z,11.07
2023-04-22T02:28:07.904Z,11.00
2023-04-22T02:32:09.991Z,10.84
2023-04-22T02:36:12.289Z,10.69
2023-04-22T02:40:14.367Z,10.60
2023-04-22T02:44:16.400Z,10.61
2023-04-22T02:48:18.435Z,10.63
2023-04-22T02:52:20.710Z,10.47
2023-04-22T02:56:22.808Z,10.43
2023-04-22T03:00:25.193Z,10.42
2023-04-22T03:04:27.598Z,10.42
2023-04-22T03:08:29.930Z,10.46
2023-04-22T03:12:31.960Z,10.49
2023-04-22T03:16:35.244Z,10.44
2023-04-22T03:20:40.478Z,10.45
2023-04-22T03:24:42.623Z,10.52
2023-04-22T03:28:45.681Z,10.51
2023-04-22T03:32:47.863Z,10.43
2023-04-22T03:37:00.383Z,10.34
2023-04-22T03:41:02.843Z,10.30
2023-04-22T03:45:15.218Z,10.29
2023-04-22T03:49:21.913Z,10.24
2023-04-22T03:53:24.352Z,10.21
2023-04-22T03:57:27.173Z,10.21
2023-04-22T04:01:29.648Z,10.24
2023-04-22T04:05:35.816Z,10.30
2023-04-22T04:09:38.697Z,10.32
2023-04-22T04:13:41.314Z,10.32
2023-04-22T04:18:01.343Z,10.30
2023-04-22T04:22:06.840Z,10.28
2023-04-22T04:26:15.029Z,10.27
2023-04-22T04:30:21.604Z,10.21
2023-04-22T04:34:28.717Z,10.19
2023-04-22T04:38:32.234Z,10.20
2023-04-22T04:42:34.372Z,10.24
2023-04-22T04:46:41.199Z,10.29
2023-04-22T04:50:44.390Z,10.35
2023-04-22T04:54:46.886Z,10.40
2023-04-22T04:58:49.229Z,10.46
2023-04-22T05:02:58.223Z,10.49
2023-04-22T05:07:00.554Z,10.61
2023-04-22T05:11:04.384Z,10.71
2023-04-22T05:15:07.280Z,10.74
2023-04-22T05:19:09.491Z,10.78
2023-04-22T05:23:11.753Z,10.82
2023-04-22T05:27:14.037Z,10.86
2023-04-22T05:31:16.154Z,10.91
2023-04-22T05:35:18.778Z,10.96
2023-04-22T05:39:21.087Z,11.00
2023-04-22T05:43:24.607Z,11.05
2023-04-22T05:47:33.404Z,11.12
2023-04-22T05:51:36.087Z,11.18
2023-04-22T05:55:38.559Z,11.27
2023-04-22T05:59:43.330Z,11.41
2023-04-22T06:03:45.901Z,11.64
2023-04-22T06:07:48.276Z,11.90
2023-04-22T06:11:50.278Z,12.13
2023-04-22T06:15:52.452Z,12.37
2023-04-22T06:19:54.873Z,12.61
2023-04-22T06:23:57.029Z,12.89
2023-04-22T06:27:59.646Z,13.10
2023-04-22T06:32:03.389Z,13.33
2023-04-22T06:36:06.690Z,13.66
2023-04-22T06:40:10.767Z,13.84
2023-04-22T06:44:32.121Z,14.30
2023-04-22T06:49:03.243Z,15.23
2023-04-22T06:53:23.142Z,15.77
2023-04-22T06:57:25.319Z,16.33
2023-04-22T07:01:27.605Z,17.62
2023-04-22T07:05:29.906Z,17.59
2023-04-22T07:09:33.840Z,16.60
2023-04-22T07:13:36.163Z,15.85
2023-04-22T07:17:38.215Z,15.34
2023-04-22T07:21:40.230Z,15.09
2023-04-22T07:25:42.313Z,15.00
2023-04-22T07:29:44.313Z,14.96
2023-04-22T07:33:46.362Z,14.98
2023-04-22T07:37:48.389Z,14.99
2023-04-22T07:41:51.255Z,15.00
2023-04-22T07:45:53.394Z,15.00
2023-04-22T07:49:55.566Z,15.05
2023-04-22T07:53:57.651Z,15.12
2023-04-22T07:58:06.247Z,15.12
2023-04-22T08:02:08.351Z,15.24
2023-04-22T08:06:10.504Z,15.42
2023-04-22T08:10:12.552Z,15.44
2023-04-22T08:14:14.622Z,15.50
2023-04-22T08:18:16.672Z,15.61
2023-04-22T08:22:18.905Z,15.72
2023-04-22T08:26:21.426Z,15.85
2023-04-22T08:30:23.664Z,15.99
2023-04-22T08:34:27.608Z,16.05
2023-04-22T08:38:29.714Z,16.11
2023-04-22T08:42:31.999Z,16.13
2023-04-22T08:46:34.628Z,16.20
2023-04-22T08:50:39.450Z,16.30
2023-04-22T08:54:42.032Z,16.54
2023-04-22T08:58:44.152Z,16.72
2023-04-22T09:02:47.089Z,16.93
2023-04-22T09:06:49.146Z,17.06
2023-04-22T09:10:51.271Z,17.09
2023-04-22T09:14:54.526Z,17.07
2023-04-22T09:18:56.822Z,17.19
2023-04-22T09:23:05.102Z,17.22
2023-04-22T09:27:07.253Z,17.24
2023-04-22T09:31:14.576Z,17.26
2023-04-22T09:35:16.687Z,17.29
2023-04-22T09:39:18.687Z,17.34
2023-04-22T09:43:20.762Z,17.41
2023-04-22T09:47:25.509Z,17.49
2023-04-22T09:51:28.625Z,17.67
2023-04-22T09:55:33.826Z,17.84
2023-04-22T09:59:35.809Z,17.91
2023-04-22T10:03:37.873Z,17.97
2023-04-22T10:07:39.905Z,18.14
2023-04-22T10:11:41.943Z,18.19
2023-04-22T10:15:56.493Z,18.23
2023-04-22T10:20:04.815Z,18.27
2023-04-22T10:24:07.035Z,18.32
2023-04-22T10:28:11.250Z,18.42
2023-04-22T10:32:19.500Z,18.50
2023-04-22T10:36:21.543Z,18.65
2023-04-22T10:40:23.636Z,18.72
2023-04-22T10:44:28.962Z,18.89
2023-04-22T10:48:50.418Z,18.89
2023-04-22T10:53:03.132Z,18.81
2023-04-22T10:57:10.516Z,18.74
2023-04-22T11:01:15.770Z,18.71
2023-04-22T11:05:20.159Z,18.84
2023-04-22T11:09:24.332Z,18.95
2023-04-22T11:13:26.619Z,19.04
2023-04-22T11:17:28.809Z,19.07
2023-04-22T11:21:31.614Z,19.10
2023-04-22T11:25:33.781Z,19.08
2023-04-22T11:29:36.070Z,19.16
2023-04-22T11:33:41.259Z,19.29
2023-04-22T11:37:44.371Z,19.16
2023-04-22T11:41:46.427Z,19.09
2023-04-22T11:45:48.484Z,19.09
2023-04-22T11:49:58.063Z,19.26
2023-04-22T11:54:00.747Z,19.40
2023-04-22T11:58:11.568Z,19.40
2023-04-22T12:02:13.709Z,19.45
2023-04-22T12:06:16.422Z,19.55
2023-04-22T12:10:18.470Z,19.67
2023-04-22T12:14:20.629Z,19.74
2023-04-22T12:18:53.079Z,19.91
2023-04-22T12:22:55.102Z,20.04
2023-04-22T12:26:57.167Z,20.09
2023-04-22T12:30:59.312Z,20.10
2023-04-22T12:35:01.386Z,20.10
2023-04-22T12:39:04.783Z,20.00
2023-04-22T12:43:06.861Z,20.10
2023-04-22T12:47:09.871Z,20.40
2023-04-22T12:51:11.902Z,20.61
2023-04-22T12:55:14.022Z,20.75
2023-04-22T12:59:16.107Z,20.87
2023-04-22T13:03:18.270Z,20.93
2023-04-22T13:07:20.562Z,20.89
2023-04-22T13:11:24.485Z,20.91
2023-04-22T13:15:26.651Z,20.84
2023-04-22T13:19:29.618Z,20.68
2023-04-22T13:23:32.537Z,20.51
2023-04-22T13:27:34.982Z,20.39
2023-04-22T13:31:38.537Z,20.47
2023-04-22T13:35:40.681Z,20.47
2023-04-22T13:39:42.880Z,20.31
2023-04-22T13:43:45.111Z,20.08
2023-04-22T13:47:47.228Z,19.82
2023-04-22T13:51:49.331Z,19.53
2023-04-22T13:55:51.356Z,19.29
2023-04-22T13:59:53.357Z,19.09
2023-04-22T14:03:55.599Z,18.86
2023-04-22T14:07:59.416Z,18.69
2023-04-22T14:12:03.106Z,18.56
2023-04-22T14:16:10.173Z,18.49
2023-04-22T14:20:12.207Z,18.39
2023-04-22T14:24:14.491Z,18.23
2023-04-22T14:28:16.636Z,18.16
2023-04-22T14:32:21.951Z,18.11
2023-04-22T14:36:24.038Z,18.06
2023-04-22T14:40:28.336Z,18.01
2023-04-22T14:44:30.764Z,17.87
2023-04-22T14:48:35.337Z,17.77
2023-04-22T14:52:37.472Z,17.67
2023-04-22T14:56:39.613Z,17.60
2023-04-22T15:00:41.616Z,17.51
2023-04-22T15:04:43.900Z,17.46
2023-04-22T15:08:46.060Z,17.42
2023-04-22T15:12:48.097Z,17.34
2023-04-22T15:16:50.234Z,17.20
2023-04-22T15:20:52.272Z,17.17
2023-04-22T15:24:54.296Z,17.34
2023-04-22T15:28:56.375Z,17.59
2023-04-22T15:32:58.441Z,17.78
2023-04-22T15:37:00.544Z,17.89
2023-04-22T15:41:02.659Z,18.04
2023-04-22T15:45:05.399Z,18.18
2023-04-22T15:49:07.447Z,18.28
2023-04-22T15:53:09.426Z,18.32
2023-04-22T15:57:11.507Z,18.18
2023-04-22T16:01:19.528Z,18.03
2023-04-22T16:05:24.564Z,17.82
2023-04-22T16:09:26.776Z,17.57
2023-04-22T16:13:28.804Z,17.37
2023-04-22T16:17:30.836Z,17.27
2023-04-22T16:21:33.084Z,17.20
2023-04-22T16:25:35.208Z,17.14
2023-04-22T16:29:37.271Z,17.04
2023-04-22T16:33:39.321Z,16.99
2023-04-22T16:37:41.758Z,16.95
2023-04-22T16:41:43.839Z,16.87
2023-04-22T16:45:45.912Z,16.78
2023-04-22T16:49:47.998Z,16.63
2023-04-22T16:53:50.153Z,16.58
2023-04-22T16:57:52.252Z,16.50
2023-04-22T17:01:54.691Z,16.43
2023-04-22T17:05:56.924Z,16.36
2023-04-22T17:09:59.015Z,16.32
2023-04-22T17:14:01.103Z,16.32
2023-04-22T17:18:05.712Z,16.26
2023-04-22T17:22:07.777Z,16.22
2023-04-22T17:26:09.876Z,16.17
2023-04-22T17:30:12.359Z,16.12
2023-04-22T17:34:14.528Z,16.07
2023-04-22T17:38:16.617Z,15.99
2023-04-22T17:42:18.977Z,15.92
2023-04-22T17:46:21.144Z,15.90
2023-04-22T17:50:23.751Z,15.86
2023-04-22T17:54:25.847Z,15.81
2023-04-22T17:58:27.970Z,15.78
2023-04-22T18:02:30.153Z,15.77
2023-04-22T18:06:32.439Z,15.76
2023-04-22T18:10:34.488Z,15.68
2023-04-22T18:14:36.557Z,15.63
2023-04-22T18:18:38.934Z,15.57
2023-04-22T18:22:42.064Z,15.51
2023-04-22T18:26:46.963Z,15.43
2023-04-22T18:30:49.033Z,15.43
2023-04-22T18:34:51.084Z,15.41
2023-04-22T18:38:53.404Z,15.34
2023-04-22T18:42:55.517Z,15.24
2023-04-22T18:46:57.718Z,15.20
2023-04-22T18:51:00.142Z,15.17
2023-04-22T18:55:02.468Z,15.13
2023-04-22T18:59:04.537Z,15.09
2023-04-22T19:03:07.086Z,15.03
2023-04-22T19:07:09.286Z,15.03
2023-04-22T19:11:11.411Z,14.96
2023-04-22T19:15:14.147Z,14.89
2023-04-22T19:19:16.176Z,14.73
2023-04-22T19:23:18.287Z,14.63
2023-04-22T19:27:20.388Z,14.62
2023-04-22T19:31:22.667Z,14.63
2023-04-22T19:35:27.092Z,14.62
2023-04-22T19:39:30.125Z,14.63
2023-04-22T19:43:32.245Z,14.65
2023-04-22T19:47:34.922Z,14.67
2023-04-22T19:51:39.133Z,14.64
2023-04-22T19:55:43.335Z,14.66
2023-04-22T19:59:46.998Z,14.64
2023-04-22T20:03:49.702Z,14.65
2023-04-22T20:07:52.704Z,14.54
2023-04-22T20:11:55.206Z,14.52
2023-04-22T20:15:58.714Z,14.53
2023-04-22T20:20:05.315Z,14.31
2023-04-22T20:24:07.882Z,14.20
2023-04-22T20:28:10.783Z,14.08
2023-04-22T20:32:13.006Z,14.01
2023-04-22T20:36:16.767Z,13.96
2023-04-22T20:40:20.082Z,13.98
2023-04-22T20:44:22.600Z,13.88
2023-04-22T20:48:24.636Z,13.79
2023-04-22T20:52:26.705Z,13.72
2023-04-22T20:56:28.773Z,13.71
2023-04-22T21:00:30.829Z,13.67
2023-04-22T21:04:33.668Z,13.73
2023-04-22T21:08:36.785Z,13.72
2023-04-22T21:12:39.164Z,13.70
2023-04-22T21:16:44.862Z,13.64
2023-04-22T21:20:51.280Z,13.53
2023-04-22T21:24:53.795Z,13.48
2023-04-22T21:28:56.590Z,13.48
2023-04-22T21:32:58.657Z,13.45
2023-04-22T21:37:01.158Z,13.43
2023-04-22T21:41:03.371Z,13.34
2023-04-22T21:45:06.005Z,13.25
2023-04-22T21:49:08.310Z,13.19
2023-04-22T21:53:11.159Z,13.13
2023-04-22T21:57:13.293Z,13.11
2023-04-22T22:01:15.771Z,13.10
2023-04-22T22:05:18.656Z,13.16
2023-04-22T22:09:21.495Z,13.21
2023-04-22T22:13:23.685Z,13.23
2023-04-22T22:17:26.107Z,13.20
2023-04-22T22:21:28.251Z,13.15
2023-04-22T22:25:30.378Z,13.18
2023-04-22T22:29:32.439Z,13.16
2023-04-22T22:33:39.274Z,13.09
2023-04-22T22:37:43.527Z,13.01
2023-04-22T22:41:45.693Z,12.98
2023-04-22T22:45:47.891Z,13.01
2023-04-22T22:49:50.175Z,13.06
2023-04-22T22:53:52.289Z,13.05
2023-04-22T22:57:54.317Z,13.02
2023-04-22T23:01:58.029Z,13.01
2023-04-22T23:06:00.708Z,12.98
2023-04-22T23:10:02.930Z,12.94
2023-04-22T23:14:04.970Z,12.87
2023-04-22T23:18:08.955Z,12.82
2023-04-22T23:22:12.684Z,12.82
2023-04-22T23:26:15.203Z,12.78
2023-04-22T23:30:17.538Z,12.76
2023-04-22T23:34:23.619Z,12.76
2023-04-22T23:38:25.660Z,12.73
2023-04-22T23:42:27.679Z,12.72
2023-04-22T23:46:29.857Z,12.73
2023-04-22T23:50:32.003Z,12.70
2023-04-22T23:54:34.310Z,12.64
2023-04-22T23:58:36.986Z,12.57
